sensor_id;sensor_type;location;lat;lon;timestamp;P1;durP1;ratioP1;P2;durP2;ratioP2
15273;SDS011;7738;49.532;11.156;2023-11-21T00:02:01;2.13;;;0.75;;
15273;SDS011;7738;49.532;11.156;2023-11-21T00:04:31;3.97;;;0.40;;
15273;SDS011;7738;49.532;11.156;2023-11-21T00:07:02;1.38;;;0.50;;
15273;SDS011;7738;49.532;11.156;2023-11-21T00:09:32;0.82;;;0.40;;
15273;SDS011;7738;49.532;11.156;2023-11-21T00:12:03;0.60;;;0.22;;
15273;SDS011;7738;49.532;11.156;2023-11-21T00:14:39;2.33;;;0.40;;
15273;SDS011;7738;49.532;11.156;2023-11-21T00:17:09;1.42;;;0.70;;
15273;SDS011;7738;49.532;11.156;2023-11-21T00:19:39;2.67;;;0.60;;
15273;SDS011;7738;49.532;11.156;2023-11-21T00:22:10;4.45;;;0.52;;
15273;SDS011;7738;49.532;11.156;2023-11-21T00:24:40;2.38;;;0.30;;
15273;SDS011;7738;49.532;11.156;2023-11-21T00:27:10;4.75;;;0.38;;
15273;SDS011;7738;49.532;11.156;2023-11-21T00:29:43;1.58;;;0.50;;
15273;SDS011;7738;49.532;11.156;2023-11-21T00:32:14;1.45;;;0.57;;
15273;SDS011;7738;49.532;11.156;2023-11-21T00:34:44;1.02;;;0.38;;
15273;SDS011;7738;49.532;11.156;2023-11-21T00:37:14;2.33;;;0.45;;
15273;SDS011;7738;49.532;11.156;2023-11-21T00:39:44;2.45;;;0.40;;
15273;SDS011;7738;49.532;11.156;2023-11-21T00:42:14;1.67;;;0.30;;
15273;SDS011;7738;49.532;11.156;2023-11-21T00:44:47;1.05;;;0.28;;
15273;SDS011;7738;49.532;11.156;2023-11-21T00:47:17;1.08;;;0.30;;
15273;SDS011;7738;49.532;11.156;2023-11-21T00:49:49;4.45;;;0.40;;
15273;SDS011;7738;49.532;11.156;2023-11-21T00:52:20;1.70;;;0.88;;
15273;SDS011;7738;49.532;11.156;2023-11-21T00:54:51;2.17;;;0.28;;
15273;SDS011;7738;49.532;11.156;2023-11-21T00:57:21;1.02;;;0.20;;
15273;SDS011;7738;49.532;11.156;2023-11-21T00:59:54;2.50;;;0.30;;
15273;SDS011;7738;49.532;11.156;2023-11-21T01:02:24;1.75;;;0.50;;
15273;SDS011;7738;49.532;11.156;2023-11-21T01:04:55;1.88;;;0.40;;
15273;SDS011;7738;49.532;11.156;2023-11-21T01:07:25;2.08;;;0.68;;
15273;SDS011;7738;49.532;11.156;2023-11-21T01:09:56;4.15;;;0.43;;
15273;SDS011;7738;49.532;11.156;2023-11-21T01:12:26;6.25;;;0.90;;
15273;SDS011;7738;49.532;11.156;2023-11-21T01:14:59;1.80;;;0.70;;
15273;SDS011;7738;49.532;11.156;2023-11-21T01:17:30;2.92;;;0.85;;
15273;SDS011;7738;49.532;11.156;2023-11-21T01:20:01;1.15;;;0.85;;
15273;SDS011;7738;49.532;11.156;2023-11-21T01:22:33;1.70;;;0.95;;
15273;SDS011;7738;49.532;11.156;2023-11-21T01:25:04;3.83;;;0.80;;
15273;SDS011;7738;49.532;11.156;2023-11-21T01:27:35;2.22;;;0.90;;
15273;SDS011;7738;49.532;11.156;2023-11-21T01:30:08;1.38;;;0.63;;
15273;SDS011;7738;49.532;11.156;2023-11-21T01:35:11;3.00;;;0.85;;
15273;SDS011;7738;49.532;11.156;2023-11-21T01:37:42;3.53;;;0.95;;
15273;SDS011;7738;49.532;11.156;2023-11-21T01:40:12;4.85;;;1.10;;
15273;SDS011;7738;49.532;11.156;2023-11-21T01:42:43;1.60;;;1.20;;
15273;SDS011;7738;49.532;11.156;2023-11-21T01:45:16;1.27;;;0.82;;
15273;SDS011;7738;49.532;11.156;2023-11-21T01:47:47;3.63;;;1.20;;
15273;SDS011;7738;49.532;11.156;2023-11-21T01:50:19;3.15;;;0.88;;
15273;SDS011;7738;49.532;11.156;2023-11-21T01:52:49;5.97;;;1.27;;
15273;SDS011;7738;49.532;11.156;2023-11-21T01:55:22;2.60;;;1.13;;
15273;SDS011;7738;49.532;11.156;2023-11-21T01:57:55;1.65;;;1.00;;
15273;SDS011;7738;49.532;11.156;2023-11-21T02:00:28;3.60;;;1.63;;
15273;SDS011;7738;49.532;11.156;2023-11-21T02:03:00;3.28;;;1.10;;
15273;SDS011;7738;49.532;11.156;2023-11-21T02:05:31;3.97;;;1.17;;
15273;SDS011;7738;49.532;11.156;2023-11-21T02:08:01;4.47;;;1.05;;
15273;SDS011;7738;49.532;11.156;2023-11-21T02:10:32;5.18;;;1.10;;
15273;SDS011;7738;49.532;11.156;2023-11-21T02:13:04;1.88;;;0.90;;
15273;SDS011;7738;49.532;11.156;2023-11-21T02:15:37;2.58;;;1.13;;
15273;SDS011;7738;49.532;11.156;2023-11-21T02:18:07;3.23;;;0.90;;
15273;SDS011;7738;49.532;11.156;2023-11-21T02:20:38;1.42;;;0.88;;
15273;SDS011;7738;49.532;11.156;2023-11-21T02:23:12;1.77;;;0.80;;
15273;SDS011;7738;49.532;11.156;2023-11-21T02:25:43;1.70;;;0.82;;
15273;SDS011;7738;49.532;11.156;2023-11-21T02:28:15;1.25;;;0.93;;
15273;SDS011;7738;49.532;11.156;2023-11-21T02:30:53;1.35;;;0.68;;
15273;SDS011;7738;49.532;11.156;2023-11-21T02:33:25;2.78;;;0.90;;
15273;SDS011;7738;49.532;11.156;2023-11-21T02:35:56;1.70;;;0.77;;
15273;SDS011;7738;49.532;11.156;2023-11-21T02:38:29;1.58;;;0.70;;
15273;SDS011;7738;49.532;11.156;2023-11-21T02:41:00;1.85;;;0.73;;
15273;SDS011;7738;49.532;11.156;2023-11-21T02:43:31;3.67;;;0.70;;
15273;SDS011;7738;49.532;11.156;2023-11-21T02:46:01;3.67;;;0.93;;
15273;SDS011;7738;49.532;11.156;2023-11-21T02:48:32;3.42;;;1.27;;
15273;SDS011;7738;49.532;11.156;2023-11-21T02:51:03;1.67;;;1.20;;
15273;SDS011;7738;49.532;11.156;2023-11-21T02:53:36;4.07;;;1.20;;
15273;SDS011;7738;49.532;11.156;2023-11-21T02:56:07;1.42;;;0.70;;
15273;SDS011;7738;49.532;11.156;2023-11-21T02:58:40;1.75;;;1.10;;
15273;SDS011;7738;49.532;11.156;2023-11-21T03:01:11;4.40;;;1.20;;
15273;SDS011;7738;49.532;11.156;2023-11-21T03:03:41;2.88;;;0.88;;
15273;SDS011;7738;49.532;11.156;2023-11-21T03:06:12;4.47;;;0.82;;
15273;SDS011;7738;49.532;11.156;2023-11-21T03:08:46;2.63;;;1.10;;
15273;SDS011;7738;49.532;11.156;2023-11-21T03:11:16;1.10;;;0.60;;
15273;SDS011;7738;49.532;11.156;2023-11-21T03:13:46;1.20;;;0.73;;
15273;SDS011;7738;49.532;11.156;2023-11-21T03:16:18;2.72;;;0.80;;
15273;SDS011;7738;49.532;11.156;2023-11-21T03:18:48;1.90;;;0.80;;
15273;SDS011;7738;49.532;11.156;2023-11-21T03:21:19;3.15;;;0.88;;
15273;SDS011;7738;49.532;11.156;2023-11-21T03:23:52;1.90;;;0.82;;
15273;SDS011;7738;49.532;11.156;2023-11-21T03:26:22;4.70;;;0.80;;
15273;SDS011;7738;49.532;11.156;2023-11-21T03:28:53;1.55;;;0.57;;
15273;SDS011;7738;49.532;11.156;2023-11-21T03:31:23;1.40;;;0.60;;
15273;SDS011;7738;49.532;11.156;2023-11-21T03:33:53;1.83;;;0.88;;
15273;SDS011;7738;49.532;11.156;2023-11-21T03:36:24;2.25;;;0.40;;
15273;SDS011;7738;49.532;11.156;2023-11-21T03:38:57;1.77;;;0.77;;
15273;SDS011;7738;49.532;11.156;2023-11-21T03:41:27;4.55;;;0.45;;
15273;SDS011;7738;49.532;11.156;2023-11-21T03:43:57;1.17;;;0.63;;
15273;SDS011;7738;49.532;11.156;2023-11-21T03:46:27;4.97;;;1.25;;
15273;SDS011;7738;49.532;11.156;2023-11-21T03:48:57;4.18;;;1.02;;
15273;SDS011;7738;49.532;11.156;2023-11-21T03:51:27;4.80;;;1.13;;
15273;SDS011;7738;49.532;11.156;2023-11-21T03:54:00;2.55;;;1.00;;
15273;SDS011;7738;49.532;11.156;2023-11-21T03:56:31;2.92;;;0.90;;
15273;SDS011;7738;49.532;11.156;2023-11-21T03:59:01;1.80;;;1.15;;
15273;SDS011;7738;49.532;11.156;2023-11-21T04:01:31;4.55;;;0.90;;
15273;SDS011;7738;49.532;11.156;2023-11-21T04:04:01;2.33;;;1.15;;
15273;SDS011;7738;49.532;11.156;2023-11-21T04:06:32;4.30;;;1.30;;
15273;SDS011;7738;49.532;11.156;2023-11-21T04:09:06;1.58;;;0.70;;
15273;SDS011;7738;49.532;11.156;2023-11-21T04:11:37;3.28;;;1.23;;
15273;SDS011;7738;49.532;11.156;2023-11-21T04:14:07;1.55;;;0.90;;
15273;SDS011;7738;49.532;11.156;2023-11-21T04:16:37;5.55;;;1.58;;
15273;SDS011;7738;49.532;11.156;2023-11-21T04:19:08;4.18;;;1.45;;
15273;SDS011;7738;49.532;11.156;2023-11-21T04:21:41;2.00;;;1.25;;
15273;SDS011;7738;49.532;11.156;2023-11-21T04:24:14;2.88;;;1.52;;
15273;SDS011;7738;49.532;11.156;2023-11-21T04:26:45;3.55;;;1.15;;
15273;SDS011;7738;49.532;11.156;2023-11-21T04:29:15;2.55;;;1.88;;
15273;SDS011;7738;49.532;11.156;2023-11-21T04:31:45;3.58;;;1.50;;
15273;SDS011;7738;49.532;11.156;2023-11-21T04:34:16;4.20;;;1.63;;
15273;SDS011;7738;49.532;11.156;2023-11-21T04:36:46;3.67;;;1.30;;
15273;SDS011;7738;49.532;11.156;2023-11-21T04:39:19;2.95;;;1.40;;
15273;SDS011;7738;49.532;11.156;2023-11-21T04:41:49;2.85;;;1.70;;
15273;SDS011;7738;49.532;11.156;2023-11-21T04:44:19;4.40;;;1.48;;
15273;SDS011;7738;49.532;11.156;2023-11-21T04:46:49;5.43;;;1.55;;
15273;SDS011;7738;49.532;11.156;2023-11-21T04:49:20;3.80;;;1.85;;
15273;SDS011;7738;49.532;11.156;2023-11-21T04:51:50;3.30;;;1.95;;
15273;SDS011;7738;49.532;11.156;2023-11-21T04:54:23;4.00;;;2.15;;
15273;SDS011;7738;49.532;11.156;2023-11-21T04:56:54;3.67;;;1.90;;
15273;SDS011;7738;49.532;11.156;2023-11-21T04:59:25;5.22;;;2.00;;
15273;SDS011;7738;49.532;11.156;2023-11-21T05:01:55;2.95;;;2.05;;
15273;SDS011;7738;49.532;11.156;2023-11-21T05:04:27;2.30;;;1.58;;
15273;SDS011;7738;49.532;11.156;2023-11-21T05:06:57;6.18;;;3.00;;
15273;SDS011;7738;49.532;11.156;2023-11-21T05:09:30;4.13;;;2.45;;
15273;SDS011;7738;49.532;11.156;2023-11-21T05:12:01;5.25;;;2.50;;
15273;SDS011;7738;49.532;11.156;2023-11-21T05:14:31;3.00;;;2.35;;
15273;SDS011;7738;49.532;11.156;2023-11-21T05:17:02;4.38;;;2.42;;
15273;SDS011;7738;49.532;11.156;2023-11-21T05:19:34;2.28;;;1.83;;
15273;SDS011;7738;49.532;11.156;2023-11-21T05:22:07;2.25;;;1.67;;
15273;SDS011;7738;49.532;11.156;2023-11-21T05:24:41;3.72;;;1.73;;
15273;SDS011;7738;49.532;11.156;2023-11-21T05:27:12;3.40;;;2.47;;
15273;SDS011;7738;49.532;11.156;2023-11-21T05:29:42;5.95;;;2.38;;
15273;SDS011;7738;49.532;11.156;2023-11-21T05:32:12;4.03;;;1.80;;
15273;SDS011;7738;49.532;11.156;2023-11-21T05:34:44;5.40;;;1.92;;
15273;SDS011;7738;49.532;11.156;2023-11-21T05:37:14;5.07;;;2.17;;
15273;SDS011;7738;49.532;11.156;2023-11-21T05:39:47;5.55;;;2.10;;
15273;SDS011;7738;49.532;11.156;2023-11-21T05:42:18;7.80;;;2.53;;
15273;SDS011;7738;49.532;11.156;2023-11-21T05:44:48;4.78;;;2.35;;
15273;SDS011;7738;49.532;11.156;2023-11-21T05:47:18;4.32;;;2.80;;
15273;SDS011;7738;49.532;11.156;2023-11-21T05:49:48;5.25;;;4.05;;
15273;SDS011;7738;49.532;11.156;2023-11-21T05:52:19;7.68;;;4.47;;
15273;SDS011;7738;49.532;11.156;2023-11-21T05:54:52;10.82;;;3.90;;
15273;SDS011;7738;49.532;11.156;2023-11-21T05:57:22;4.88;;;3.45;;
15273;SDS011;7738;49.532;11.156;2023-11-21T05:59:52;7.78;;;3.20;;
15273;SDS011;7738;49.532;11.156;2023-11-21T06:02:22;8.40;;;4.40;;
15273;SDS011;7738;49.532;11.156;2023-11-21T06:04:53;7.55;;;4.45;;
15273;SDS011;7738;49.532;11.156;2023-11-21T06:07:23;11.50;;;7.25;;
15273;SDS011;7738;49.532;11.156;2023-11-21T06:09:55;6.95;;;4.05;;
15273;SDS011;7738;49.532;11.156;2023-11-21T06:12:26;6.20;;;3.92;;
15273;SDS011;7738;49.532;11.156;2023-11-21T06:14:56;6.20;;;3.60;;
15273;SDS011;7738;49.532;11.156;2023-11-21T06:17:26;4.60;;;3.53;;
15273;SDS011;7738;49.532;11.156;2023-11-21T06:19:56;4.82;;;3.08;;
15273;SDS011;7738;49.532;11.156;2023-11-21T06:22:27;6.18;;;3.80;;
15273;SDS011;7738;49.532;11.156;2023-11-21T06:25:00;9.00;;;4.07;;
15273;SDS011;7738;49.532;11.156;2023-11-21T06:27:31;8.38;;;3.58;;
15273;SDS011;7738;49.532;11.156;2023-11-21T06:30:03;7.70;;;4.20;;
15273;SDS011;7738;49.532;11.156;2023-11-21T06:32:36;8.03;;;3.80;;
15273;SDS011;7738;49.532;11.156;2023-11-21T06:35:07;7.75;;;4.85;;
15273;SDS011;7738;49.532;11.156;2023-11-21T06:37:38;9.27;;;5.07;;
15273;SDS011;7738;49.532;11.156;2023-11-21T06:40:16;8.98;;;5.25;;
15273;SDS011;7738;49.532;11.156;2023-11-21T06:45:18;11.15;;;4.40;;
15273;SDS011;7738;49.532;11.156;2023-11-21T06:47:49;10.05;;;4.60;;
15273;SDS011;7738;49.532;11.156;2023-11-21T06:50:20;9.48;;;4.22;;
15273;SDS011;7738;49.532;11.156;2023-11-21T06:52:50;7.63;;;3.88;;
15273;SDS011;7738;49.532;11.156;2023-11-21T06:55:23;8.73;;;4.15;;
15273;SDS011;7738;49.532;11.156;2023-11-21T06:57:53;10.40;;;4.82;;
15273;SDS011;7738;49.532;11.156;2023-11-21T07:00:24;8.40;;;4.30;;
15273;SDS011;7738;49.532;11.156;2023-11-21T07:02:55;8.15;;;4.50;;
15273;SDS011;7738;49.532;11.156;2023-11-21T07:05:26;7.22;;;5.68;;
15273;SDS011;7738;49.532;11.156;2023-11-21T07:07:56;7.50;;;4.05;;
15273;SDS011;7738;49.532;11.156;2023-11-21T07:10:34;5.82;;;4.35;;
15273;SDS011;7738;49.532;11.156;2023-11-21T07:13:06;6.63;;;3.92;;
15273;SDS011;7738;49.532;11.156;2023-11-21T07:15:39;10.48;;;4.70;;
15273;SDS011;7738;49.532;11.156;2023-11-21T07:18:10;10.38;;;5.00;;
15273;SDS011;7738;49.532;11.156;2023-11-21T07:20:40;6.65;;;5.00;;
15273;SDS011;7738;49.532;11.156;2023-11-21T07:23:10;7.95;;;5.13;;
15273;SDS011;7738;49.532;11.156;2023-11-21T07:25:45;9.43;;;4.93;;
15273;SDS011;7738;49.532;11.156;2023-11-21T07:28:15;10.25;;;5.55;;
15273;SDS011;7738;49.532;11.156;2023-11-21T07:30:45;7.40;;;4.25;;
15273;SDS011;7738;49.532;11.156;2023-11-21T07:33:16;6.47;;;4.10;;
15273;SDS011;7738;49.532;11.156;2023-11-21T07:35:47;7.47;;;4.57;;
15273;SDS011;7738;49.532;11.156;2023-11-21T07:38:17;7.03;;;4.40;;
15273;SDS011;7738;49.532;11.156;2023-11-21T07:40:50;10.68;;;4.93;;
15273;SDS011;7738;49.532;11.156;2023-11-21T07:43:20;7.40;;;4.22;;
15273;SDS011;7738;49.532;11.156;2023-11-21T07:45:50;9.40;;;4.47;;
15273;SDS011;7738;49.532;11.156;2023-11-21T07:48:20;12.27;;;4.50;;
15273;SDS011;7738;49.532;11.156;2023-11-21T07:50:50;17.48;;;6.63;;
15273;SDS011;7738;49.532;11.156;2023-11-21T07:53:21;13.02;;;5.93;;
15273;SDS011;7738;49.532;11.156;2023-11-21T07:55:54;9.13;;;5.07;;
15273;SDS011;7738;49.532;11.156;2023-11-21T07:58:25;10.07;;;5.50;;
15273;SDS011;7738;49.532;11.156;2023-11-21T08:00:55;12.20;;;7.00;;
15273;SDS011;7738;49.532;11.156;2023-11-21T08:03:29;13.13;;;6.65;;
15273;SDS011;7738;49.532;11.156;2023-11-21T08:06:00;11.40;;;7.05;;
15273;SDS011;7738;49.532;11.156;2023-11-21T08:08:32;9.02;;;5.20;;
15273;SDS011;7738;49.532;11.156;2023-11-21T08:11:05;7.80;;;5.50;;
15273;SDS011;7738;49.532;11.156;2023-11-21T08:13:37;11.77;;;6.60;;
15273;SDS011;7738;49.532;11.156;2023-11-21T08:16:07;9.73;;;6.00;;
15273;SDS011;7738;49.532;11.156;2023-11-21T08:18:37;8.57;;;5.57;;
15273;SDS011;7738;49.532;11.156;2023-11-21T08:21:08;9.68;;;6.22;;
15273;SDS011;7738;49.532;11.156;2023-11-21T08:23:38;10.60;;;5.50;;
15273;SDS011;7738;49.532;11.156;2023-11-21T08:26:11;11.77;;;6.20;;
15273;SDS011;7738;49.532;11.156;2023-11-21T08:28:41;10.65;;;6.15;;
15273;SDS011;7738;49.532;11.156;2023-11-21T08:31:12;20.73;;;16.92;;
15273;SDS011;7738;49.532;11.156;2023-11-21T08:33:42;18.08;;;13.10;;
15273;SDS011;7738;49.532;11.156;2023-11-21T08:36:12;12.85;;;7.38;;
15273;SDS011;7738;49.532;11.156;2023-11-21T08:38:42;11.50;;;8.07;;
15273;SDS011;7738;49.532;11.156;2023-11-21T08:41:15;8.93;;;6.50;;
15273;SDS011;7738;49.532;11.156;2023-11-21T08:43:47;10.55;;;4.55;;
15273;SDS011;7738;49.532;11.156;2023-11-21T08:46:20;11.55;;;5.75;;
15273;SDS011;7738;49.532;11.156;2023-11-21T08:48:52;8.98;;;5.88;;
15273;SDS011;7738;49.532;11.156;2023-11-21T08:51:22;7.40;;;4.78;;
15273;SDS011;7738;49.532;11.156;2023-11-21T08:53:52;10.77;;;6.05;;
15273;SDS011;7738;49.532;11.156;2023-11-21T08:56:28;8.23;;;4.72;;
15273;SDS011;7738;49.532;11.156;2023-11-21T08:58:58;8.73;;;4.85;;
15273;SDS011;7738;49.532;11.156;2023-11-21T09:01:29;14.68;;;5.57;;
15273;SDS011;7738;49.532;11.156;2023-11-21T09:04:00;7.95;;;5.15;;
15273;SDS011;7738;49.532;11.156;2023-11-21T09:06:31;8.48;;;4.93;;
15273;SDS011;7738;49.532;11.156;2023-11-21T09:09:02;9.02;;;5.10;;
15273;SDS011;7738;49.532;11.156;2023-11-21T09:11:37;8.13;;;4.30;;
15273;SDS011;7738;49.532;11.156;2023-11-21T09:14:07;9.48;;;5.68;;
15273;SDS011;7738;49.532;11.156;2023-11-21T09:16:39;9.82;;;5.72;;
15273;SDS011;7738;49.532;11.156;2023-11-21T09:19:10;8.05;;;5.03;;
15273;SDS011;7738;49.532;11.156;2023-11-21T09:21:41;8.80;;;5.63;;
15273;SDS011;7738;49.532;11.156;2023-11-21T09:24:11;8.30;;;5.00;;
15273;SDS011;7738;49.532;11.156;2023-11-21T09:26:43;8.77;;;4.82;;
15273;SDS011;7738;49.532;11.156;2023-11-21T09:29:14;8.18;;;4.53;;
15273;SDS011;7738;49.532;11.156;2023-11-21T09:31:45;6.28;;;4.07;;
15273;SDS011;7738;49.532;11.156;2023-11-21T09:34:17;5.78;;;4.22;;
15273;SDS011;7738;49.532;11.156;2023-11-21T09:36:48;6.32;;;4.32;;
15273;SDS011;7738;49.532;11.156;2023-11-21T09:39:18;7.80;;;3.90;;
15273;SDS011;7738;49.532;11.156;2023-11-21T09:41:51;5.03;;;3.63;;
15273;SDS011;7738;49.532;11.156;2023-11-21T09:44:29;5.10;;;3.70;;
15273;SDS011;7738;49.532;11.156;2023-11-21T09:47:04;7.28;;;4.43;;
15273;SDS011;7738;49.532;11.156;2023-11-21T09:49:37;5.32;;;3.50;;
15273;SDS011;7738;49.532;11.156;2023-11-21T09:52:08;4.97;;;3.63;;
15273;SDS011;7738;49.532;11.156;2023-11-21T09:54:44;5.05;;;3.92;;
15273;SDS011;7738;49.532;11.156;2023-11-21T09:57:18;3.70;;;3.03;;
15273;SDS011;7738;49.532;11.156;2023-11-21T09:59:51;3.85;;;2.92;;
15273;SDS011;7738;49.532;11.156;2023-11-21T10:02:26;6.57;;;3.17;;
15273;SDS011;7738;49.532;11.156;2023-11-21T10:04:59;4.13;;;2.83;;
15273;SDS011;7738;49.532;11.156;2023-11-21T10:07:30;5.30;;;2.42;;
15273;SDS011;7738;49.532;11.156;2023-11-21T10:10:04;5.47;;;3.65;;
15273;SDS011;7738;49.532;11.156;2023-11-21T10:12:39;3.55;;;2.95;;
15273;SDS011;7738;49.532;11.156;2023-11-21T10:15:11;6.45;;;3.50;;
15273;SDS011;7738;49.532;11.156;2023-11-21T10:17:44;4.65;;;3.15;;
15273;SDS011;7738;49.532;11.156;2023-11-21T10:20:16;6.55;;;3.78;;
15273;SDS011;7738;49.532;11.156;2023-11-21T10:22:47;6.47;;;3.92;;
15273;SDS011;7738;49.532;11.156;2023-11-21T10:25:17;6.60;;;3.60;;
15273;SDS011;7738;49.532;11.156;2023-11-21T10:27:56;4.00;;;2.63;;
15273;SDS011;7738;49.532;11.156;2023-11-21T10:30:28;4.57;;;2.45;;
15273;SDS011;7738;49.532;11.156;2023-11-21T10:33:03;4.43;;;2.63;;
15273;SDS011;7738;49.532;11.156;2023-11-21T10:35:38;3.15;;;2.42;;
15273;SDS011;7738;49.532;11.156;2023-11-21T10:38:14;3.63;;;2.13;;
15273;SDS011;7738;49.532;11.156;2023-11-21T10:40:44;5.63;;;3.50;;
15273;SDS011;7738;49.532;11.156;2023-11-21T10:43:18;4.93;;;2.90;;
15273;SDS011;7738;49.532;11.156;2023-11-21T10:45:48;5.10;;;2.90;;
15273;SDS011;7738;49.532;11.156;2023-11-21T10:48:19;4.38;;;1.92;;
15273;SDS011;7738;49.532;11.156;2023-11-21T10:50:50;3.03;;;2.35;;
15273;SDS011;7738;49.532;11.156;2023-11-21T10:53:21;3.75;;;1.60;;
15273;SDS011;7738;49.532;11.156;2023-11-21T10:55:55;2.95;;;1.42;;
15273;SDS011;7738;49.532;11.156;2023-11-21T10:58:34;2.22;;;1.92;;
15273;SDS011;7738;49.532;11.156;2023-11-21T11:01:07;1.80;;;1.55;;
15273;SDS011;7738;49.532;11.156;2023-11-21T11:03:38;1.67;;;1.35;;
15273;SDS011;7738;49.532;11.156;2023-11-21T11:06:09;2.50;;;1.75;;
15273;SDS011;7738;49.532;11.156;2023-11-21T11:08:40;1.80;;;1.45;;
15273;SDS011;7738;49.532;11.156;2023-11-21T11:11:12;3.72;;;2.03;;
15273;SDS011;7738;49.532;11.156;2023-11-21T11:13:45;6.57;;;2.80;;
15273;SDS011;7738;49.532;11.156;2023-11-21T11:16:15;4.88;;;2.15;;
15273;SDS011;7738;49.532;11.156;2023-11-21T11:18:46;6.45;;;2.45;;
15273;SDS011;7738;49.532;11.156;2023-11-21T11:21:20;2.55;;;2.00;;
15273;SDS011;7738;49.532;11.156;2023-11-21T11:24:02;4.97;;;2.42;;
15273;SDS011;7738;49.532;11.156;2023-11-21T11:26:45;3.38;;;2.20;;
15273;SDS011;7738;49.532;11.156;2023-11-21T11:29:26;3.83;;;1.98;;
15273;SDS011;7738;49.532;11.156;2023-11-21T11:32:06;3.40;;;2.03;;
15273;SDS011;7738;49.532;11.156;2023-11-21T11:34:44;2.90;;;1.70;;
15273;SDS011;7738;49.532;11.156;2023-11-21T11:37:19;3.33;;;2.08;;
15273;SDS011;7738;49.532;11.156;2023-11-21T11:39:50;4.05;;;1.85;;
15273;SDS011;7738;49.532;11.156;2023-11-21T11:42:21;2.80;;;2.03;;
15273;SDS011;7738;49.532;11.156;2023-11-21T11:44:54;5.57;;;2.10;;
15273;SDS011;7738;49.532;11.156;2023-11-21T11:47:25;4.90;;;2.40;;
15273;SDS011;7738;49.532;11.156;2023-11-21T11:50:02;2.05;;;1.80;;
15273;SDS011;7738;49.532;11.156;2023-11-21T11:52:39;3.28;;;2.33;;
15273;SDS011;7738;49.532;11.156;2023-11-21T11:55:12;2.60;;;1.88;;
15273;SDS011;7738;49.532;11.156;2023-11-21T11:57:47;3.90;;;2.30;;
15273;SDS011;7738;49.532;11.156;2023-11-21T12:00:32;6.00;;;2.60;;
15273;SDS011;7738;49.532;11.156;2023-11-21T12:03:09;3.00;;;2.13;;
15273;SDS011;7738;49.532;11.156;2023-11-21T12:05:40;3.13;;;2.42;;
15273;SDS011;7738;49.532;11.156;2023-11-21T12:08:14;3.92;;;2.72;;
15273;SDS011;7738;49.532;11.156;2023-11-21T12:10:46;5.43;;;2.75;;
15273;SDS011;7738;49.532;11.156;2023-11-21T12:13:16;5.47;;;2.30;;
15273;SDS011;7738;49.532;11.156;2023-11-21T12:15:49;2.95;;;1.95;;
15273;SDS011;7738;49.532;11.156;2023-11-21T12:18:21;3.00;;;2.30;;
15273;SDS011;7738;49.532;11.156;2023-11-21T12:20:56;3.00;;;1.95;;
15273;SDS011;7738;49.532;11.156;2023-11-21T12:23:31;2.78;;;1.80;;
15273;SDS011;7738;49.532;11.156;2023-11-21T12:26:03;4.50;;;3.00;;
15273;SDS011;7738;49.532;11.156;2023-11-21T12:28:36;5.22;;;2.28;;
15273;SDS011;7738;49.532;11.156;2023-11-21T12:31:09;2.83;;;1.77;;
15273;SDS011;7738;49.532;11.156;2023-11-21T12:33:48;2.47;;;2.00;;
15273;SDS011;7738;49.532;11.156;2023-11-21T12:36:18;4.00;;;2.20;;
15273;SDS011;7738;49.532;11.156;2023-11-21T12:38:49;4.35;;;3.05;;
15273;SDS011;7738;49.532;11.156;2023-11-21T12:41:21;3.92;;;2.80;;
15273;SDS011;7738;49.532;11.156;2023-11-21T12:43:52;4.82;;;2.30;;
15273;SDS011;7738;49.532;11.156;2023-11-21T12:46:27;3.28;;;2.47;;
15273;SDS011;7738;49.532;11.156;2023-11-21T12:49:02;5.57;;;2.28;;
15273;SDS011;7738;49.532;11.156;2023-11-21T12:51:32;7.30;;;2.13;;
15273;SDS011;7738;49.532;11.156;2023-11-21T12:54:02;4.97;;;2.90;;
15273;SDS011;7738;49.532;11.156;2023-11-21T12:56:33;3.33;;;2.13;;
15273;SDS011;7738;49.532;11.156;2023-11-21T12:59:07;4.00;;;2.20;;
15273;SDS011;7738;49.532;11.156;2023-11-21T13:01:45;4.25;;;2.75;;
15273;SDS011;7738;49.532;11.156;2023-11-21T13:04:18;4.07;;;2.40;;
15273;SDS011;7738;49.532;11.156;2023-11-21T13:06:49;6.40;;;2.15;;
15273;SDS011;7738;49.532;11.156;2023-11-21T13:09:19;3.80;;;2.20;;
15273;SDS011;7738;49.532;11.156;2023-11-21T13:11:49;5.68;;;2.25;;
15273;SDS011;7738;49.532;11.156;2023-11-21T13:14:20;7.22;;;2.40;;
15273;SDS011;7738;49.532;11.156;2023-11-21T13:17:01;3.05;;;1.50;;
15273;SDS011;7738;49.532;11.156;2023-11-21T13:19:31;2.70;;;2.00;;
15273;SDS011;7738;49.532;11.156;2023-11-21T13:22:02;3.42;;;1.40;;
15273;SDS011;7738;49.532;11.156;2023-11-21T13:24:33;2.45;;;1.75;;
15273;SDS011;7738;49.532;11.156;2023-11-21T13:27:03;3.72;;;1.48;;
15273;SDS011;7738;49.532;11.156;2023-11-21T13:29:33;3.47;;;1.92;;
15273;SDS011;7738;49.532;11.156;2023-11-21T13:32:06;3.67;;;1.73;;
15273;SDS011;7738;49.532;11.156;2023-11-21T13:34:38;3.53;;;1.75;;
15273;SDS011;7738;49.532;11.156;2023-11-21T13:37:11;4.88;;;1.75;;
15273;SDS011;7738;49.532;11.156;2023-11-21T13:39:42;2.55;;;1.80;;
15273;SDS011;7738;49.532;11.156;2023-11-21T13:42:18;5.85;;;2.15;;
15273;SDS011;7738;49.532;11.156;2023-11-21T13:44:55;3.13;;;1.92;;
15273;SDS011;7738;49.532;11.156;2023-11-21T13:50:00;5.97;;;2.47;;
15273;SDS011;7738;49.532;11.156;2023-11-21T13:52:30;4.72;;;2.38;;
15273;SDS011;7738;49.532;11.156;2023-11-21T13:55:03;3.38;;;2.03;;
15273;SDS011;7738;49.532;11.156;2023-11-21T13:57:41;5.82;;;2.20;;
15273;SDS011;7738;49.532;11.156;2023-11-21T14:00:16;4.20;;;2.25;;
15273;SDS011;7738;49.532;11.156;2023-11-21T14:03:01;4.97;;;2.17;;
15273;SDS011;7738;49.532;11.156;2023-11-21T14:05:37;3.78;;;2.30;;
15273;SDS011;7738;49.532;11.156;2023-11-21T14:08:10;2.03;;;1.85;;
15273;SDS011;7738;49.532;11.156;2023-11-21T14:10:43;4.30;;;2.47;;
15273;SDS011;7738;49.532;11.156;2023-11-21T14:13:17;4.00;;;1.83;;
15273;SDS011;7738;49.532;11.156;2023-11-21T14:15:50;5.30;;;2.47;;
15273;SDS011;7738;49.532;11.156;2023-11-21T14:21:01;4.20;;;2.17;;
15273;SDS011;7738;49.532;11.156;2023-11-21T14:23:32;4.60;;;2.05;;
15273;SDS011;7738;49.532;11.156;2023-11-21T14:26:03;2.92;;;1.67;;
15273;SDS011;7738;49.532;11.156;2023-11-21T14:28:34;6.40;;;2.10;;
15273;SDS011;7738;49.532;11.156;2023-11-21T14:31:04;4.18;;;2.40;;
15273;SDS011;7738;49.532;11.156;2023-11-21T14:33:37;8.10;;;2.38;;
15273;SDS011;7738;49.532;11.156;2023-11-21T14:36:08;5.88;;;2.20;;
15273;SDS011;7738;49.532;11.156;2023-11-21T14:38:38;11.48;;;2.80;;
15273;SDS011;7738;49.532;11.156;2023-11-21T14:41:09;3.45;;;2.22;;
15273;SDS011;7738;49.532;11.156;2023-11-21T14:43:41;5.78;;;2.22;;
15273;SDS011;7738;49.532;11.156;2023-11-21T14:46:12;5.47;;;2.33;;
15273;SDS011;7738;49.532;11.156;2023-11-21T14:48:48;6.07;;;2.40;;
15273;SDS011;7738;49.532;11.156;2023-11-21T14:51:25;5.72;;;2.92;;
15273;SDS011;7738;49.532;11.156;2023-11-21T14:53:57;5.75;;;2.25;;
15273;SDS011;7738;49.532;11.156;2023-11-21T14:56:33;3.28;;;1.95;;
15273;SDS011;7738;49.532;11.156;2023-11-21T14:59:05;6.38;;;2.10;;
15273;SDS011;7738;49.532;11.156;2023-11-21T15:01:39;3.75;;;2.38;;
15273;SDS011;7738;49.532;11.156;2023-11-21T15:04:24;6.38;;;1.75;;
15273;SDS011;7738;49.532;11.156;2023-11-21T15:07:03;4.63;;;2.22;;
15273;SDS011;7738;49.532;11.156;2023-11-21T15:09:33;5.57;;;2.80;;
15273;SDS011;7738;49.532;11.156;2023-11-21T15:12:09;6.15;;;2.72;;
15273;SDS011;7738;49.532;11.156;2023-11-21T15:14:50;5.32;;;2.83;;
15273;SDS011;7738;49.532;11.156;2023-11-21T15:17:23;7.47;;;3.42;;
15273;SDS011;7738;49.532;11.156;2023-11-21T15:20:00;5.65;;;3.65;;
15273;SDS011;7738;49.532;11.156;2023-11-21T15:22:30;9.82;;;4.07;;
15273;SDS011;7738;49.532;11.156;2023-11-21T15:25:00;6.30;;;3.45;;